Cloverdale, Illinois
Current Conditions -  °F | °C
As of 2:52 AM on Tuesday 21 Oct 2014 (Local Time) from KDPA Reporting Station
Overcast Overcast  
Wind Chill: 51°   Ceiling: 4600
Heat Index: 51°   Visibility: 10mi
Dew Point: 42°   Wind: 9mph
Humidity: 71%   Direction: 350°N
Pressure: 30.02"   Gusts: NA
Location:  41.9753°N, 88.1977°W
Report Text: KDPA 210752Z 35008KT 10SM OVC046 11/06 A3002 RMK AO2 SLP165 T01060056
Loading
Personal Weather Stations






























Interactive Weather Map
Tropical Storm Tracking
New forecast layout! Learn more

10-Day Weather Forecast

Advertisements
Track Severe Weather on mobile